Time;durP1;ratioP1;P1;durP2;ratioP2;P2;SDS_P1;SDS_P2;PMS_P1;PMS_P2;Temp;Humidity;BMP_temperature;BMP_pressure;BME280_temperature;BME280_humidity;BME280_pressure;Samples;Min_cycle;Max_cycle;Signal;HPM_P1;HPM_P2
2022/03/09 00:01:13;;;;;;;67.75;39.55;;;0.40;2201.60;;;;;;5011450;28;20022;-77
2022/03/09 00:03:39;;;;;;;66.60;37.08;;;0.30;2201.60;;;;;;5044209;28;20469;-77
2022/03/09 00:06:04;;;;;;;54.90;32.90;;;0.30;2201.60;;;;;;5011006;28;20054;-77
2022/03/09 00:08:30;;;;;;;56.40;27.42;;;0.20;2201.60;;;;;;5012657;28;20025;-75
2022/03/09 00:10:56;;;;;;;59.47;36.25;;;0.20;2201.60;;;;;;5010088;28;20037;-77
2022/03/09 00:13:22;;;;;;;46.15;29.60;;;0.30;2201.60;;;;;;5011769;28;20029;-76
2022/03/09 00:15:47;;;;;;;52.63;28.92;;;0.30;2201.60;;;;;;5011204;28;20036;-75
2022/03/09 00:18:13;;;;;;;47.85;25.25;;;0.30;2201.60;;;;;;5013243;28;20492;-77
2022/03/09 00:20:39;;;;;;;38.28;21.13;;;0.30;2201.60;;;;;;5013830;28;20029;-76
2022/03/09 00:23:04;;;;;;;46.33;25.77;;;0.30;2201.60;;;;;;5011233;28;20159;-78
2022/03/09 00:25:30;;;;;;;39.20;24.05;;;0.30;2201.60;;;;;;5012379;28;20046;-76
2022/03/09 00:27:57;;;;;;;40.95;25.85;;;0.40;2201.60;;;;;;5010874;28;20034;-76
2022/03/09 00:30:23;;;;;;;48.42;28.08;;;0.40;2201.60;;;;;;5045124;28;20033;-77
2022/03/09 00:32:49;;;;;;;50.10;27.88;;;0.50;2201.60;;;;;;5013338;28;20026;-76
2022/03/09 00:35:14;;;;;;;52.55;34.78;;;0.50;2201.60;;;;;;5044959;28;20026;-76
2022/03/09 00:37:40;;;;;;;53.88;28.98;;;0.40;2201.60;;;;;;5012707;28;20033;-77
2022/03/09 00:40:07;;;;;;;63.05;34.45;;;0.50;2201.60;;;;;;5013289;28;20068;-75
2022/03/09 00:42:37;;;;;;;67.00;35.63;;;0.50;2201.60;;;;;;5012898;28;20030;-77
2022/03/09 00:45:04;;;;;;;132.50;59.35;;;0.40;2201.60;;;;;;5012756;28;20033;-77
2022/03/09 00:47:30;;;;;;;76.50;42.08;;;0.40;2201.60;;;;;;5012721;28;20096;-76
2022/03/09 00:49:56;;;;;;;57.10;35.10;;;0.40;2201.60;;;;;;5011512;28;20473;-76
2022/03/09 00:52:22;;;;;;;48.03;27.45;;;0.40;2201.60;;;;;;5011811;28;20038;-77
2022/03/09 00:54:48;;;;;;;54.40;33.13;;;0.40;2201.60;;;;;;5012953;28;20026;-76
2022/03/09 00:57:15;;;;;;;45.72;25.08;;;0.40;2201.60;;;;;;5011274;28;20038;-76
2022/03/09 00:59:40;;;;;;;60.15;30.35;;;0.40;2201.60;;;;;;5012889;28;20105;-76
2022/03/09 01:02:07;;;;;;;43.50;24.30;;;0.40;2201.60;;;;;;5012582;28;20480;-76
2022/03/09 01:04:36;;;;;;;41.20;24.15;;;0.40;2201.60;;;;;;5044478;28;20060;-76
2022/03/09 01:07:03;;;;;;;39.03;24.42;;;0.30;2201.60;;;;;;5043932;28;20401;-77
2022/03/09 01:09:28;;;;;;;45.95;23.73;;;0.40;2201.60;;;;;;5011412;28;20026;-76
2022/03/09 01:11:54;;;;;;;40.60;24.70;;;0.40;2201.60;;;;;;5012279;28;20435;-76
2022/03/09 01:14:20;;;;;;;40.05;24.00;;;0.40;2201.60;;;;;;5012845;28;20044;-76
2022/03/09 01:16:46;;;;;;;30.45;16.85;;;0.40;2201.60;;;;;;5044377;28;20408;-77
2022/03/09 01:19:12;;;;;;;47.90;25.30;;;0.40;2201.60;;;;;;5012632;28;20465;-77
2022/03/09 01:21:37;;;;;;;32.00;20.38;;;0.40;2201.60;;;;;;5010756;28;20025;-76
2022/03/09 01:24:03;;;;;;;36.00;22.23;;;0.40;2201.60;;;;;;5011205;28;20026;-77
2022/03/09 01:26:29;;;;;;;29.48;15.45;;;0.40;2201.60;;;;;;5044182;28;20038;-77
2022/03/09 01:28:55;;;;;;;28.83;16.90;;;0.40;2201.60;;;;;;5012445;28;20032;-77
2022/03/09 01:31:21;;;;;;;41.03;22.40;;;0.40;2201.60;;;;;;5011045;28;20034;-76
2022/03/09 01:33:46;;;;;;;30.05;14.20;;;0.40;2201.60;;;;;;5012658;28;20098;-77
2022/03/09 01:36:12;;;;;;;29.55;15.73;;;0.40;2201.60;;;;;;5012187;28;20381;-76
2022/03/09 01:38:38;;;;;;;30.27;17.33;;;0.40;2201.60;;;;;;5008757;28;20087;-76
2022/03/09 01:41:03;;;;;;;18.90;12.73;;;0.40;2201.60;;;;;;5011981;28;20117;-77
2022/03/09 01:43:29;;;;;;;27.80;13.55;;;0.40;2201.60;;;;;;5012290;28;20492;-77
2022/03/09 01:45:55;;;;;;;26.17;13.93;;;0.40;2201.60;;;;;;5010696;28;20096;-77
2022/03/09 01:48:21;;;;;;;32.05;18.75;;;0.50;2201.60;;;;;;5012335;28;20136;-76
2022/03/09 01:50:47;;;;;;;29.48;16.65;;;0.40;2201.60;;;;;;5011901;28;20037;-77
2022/03/09 01:53:13;;;;;;;29.92;19.15;;;0.40;2201.60;;;;;;5010854;28;20115;-76
2022/03/09 01:55:39;;;;;;;21.65;13.52;;;0.40;2201.60;;;;;;5011875;28;20112;-77
2022/03/09 01:58:05;;;;;;;29.27;17.33;;;0.40;2201.60;;;;;;5012105;28;20026;-76
2022/03/09 02:00:31;;;;;;;27.65;15.82;;;0.40;2201.60;;;;;;5011842;28;20022;-77
2022/03/09 02:02:57;;;;;;;32.28;17.52;;;0.40;2201.60;;;;;;5012340;28;20097;-76
2022/03/09 02:05:22;;;;;;;29.98;17.30;;;0.40;2201.60;;;;;;5010649;28;20042;-77
2022/03/09 02:10:32;;;;;;;27.52;18.27;;;0.30;2201.60;;;;;;5012037;28;20045;-77
2022/03/09 02:12:58;;;;;;;29.13;17.52;;;0.20;2201.60;;;;;;5012005;28;20030;-76
2022/03/09 02:15:24;;;;;;;28.73;16.23;;;0.30;2201.60;;;;;;5010377;28;20469;-77
2022/03/09 02:17:50;;;;;;;28.08;13.90;;;0.20;2201.60;;;;;;5011933;28;20047;-77
2022/03/09 02:20:16;;;;;;;23.63;13.38;;;0.20;2201.60;;;;;;5010647;28;20105;-76
2022/03/09 02:22:43;;;;;;;29.60;18.02;;;0.20;2201.60;;;;;;5011919;28;20033;-75
2022/03/09 02:25:11;;;;;;;24.90;16.38;;;0.20;2201.60;;;;;;5013149;28;20034;-77
2022/03/09 02:27:38;;;;;;;24.00;15.93;;;0.20;2201.60;;;;;;5013704;28;20057;-77
2022/03/09 02:30:05;;;;;;;32.25;17.90;;;0.20;2201.60;;;;;;5015344;28;20555;-76
2022/03/09 02:32:31;;;;;;;26.50;17.17;;;0.20;2201.60;;;;;;5014179;28;20032;-77
2022/03/09 02:34:57;;;;;;;26.90;16.73;;;0.20;2201.60;;;;;;5015858;28;20026;-76
2022/03/09 02:37:22;;;;;;;28.27;18.70;;;0.20;2201.60;;;;;;5013533;28;20049;-77
2022/03/09 02:39:49;;;;;;;29.45;16.20;;;0.10;2201.60;;;;;;5014166;28;20045;-76
2022/03/09 02:42:14;;;;;;;35.45;20.25;;;0.20;2201.60;;;;;;5013846;28;20022;-76
2022/03/09 02:44:40;;;;;;;31.38;18.63;;;0.10;2201.60;;;;;;5015152;28;20033;-75
2022/03/09 02:47:07;;;;;;;27.92;17.13;;;0.10;2201.60;;;;;;5013919;28;20128;-75
2022/03/09 02:49:34;;;;;;;31.42;19.10;;;0.00;2201.60;;;;;;5014001;28;20022;-76
2022/03/09 02:52:00;;;;;;;30.13;18.20;;;0.00;2201.60;;;;;;5013976;28;20052;-76
2022/03/09 02:54:25;;;;;;;31.13;19.65;;;12.90;2201.60;;;;;;5015166;28;20036;-76
2022/03/09 02:56:51;;;;;;;30.08;17.75;;;12.90;2201.60;;;;;;5014801;28;20029;-75
2022/03/09 02:59:17;;;;;;;34.08;18.60;;;12.90;2201.60;;;;;;5015362;28;20385;-76
2022/03/09 03:01:42;;;;;;;28.88;17.88;;;12.90;2201.60;;;;;;5013840;28;20029;-76
2022/03/09 03:04:08;;;;;;;33.28;18.83;;;13.00;2201.60;;;;;;5013695;28;20435;-75
2022/03/09 03:06:34;;;;;;;35.70;19.10;;;13.00;2201.60;;;;;;5014482;28;20056;-76
2022/03/09 03:09:00;;;;;;;27.35;15.98;;;13.00;2201.60;;;;;;5013274;28;20038;-76
2022/03/09 03:11:25;;;;;;;29.55;16.63;;;13.10;2201.60;;;;;;5013633;28;20400;-77
2022/03/09 03:13:51;;;;;;;28.50;15.23;;;13.10;2201.60;;;;;;5013676;28;20030;-75
2022/03/09 03:16:17;;;;;;;32.85;19.20;;;13.10;2201.60;;;;;;5013601;28;20036;-76
2022/03/09 03:18:43;;;;;;;30.75;17.30;;;13.10;2201.60;;;;;;5013616;28;20076;-76
2022/03/09 03:21:08;;;;;;;30.70;17.20;;;13.10;2201.60;;;;;;5014651;28;20268;-76
2022/03/09 03:23:35;;;;;;;39.03;19.90;;;13.10;2201.60;;;;;;5014535;28;20032;-76
2022/03/09 03:26:03;;;;;;;24.80;13.93;;;13.10;2201.60;;;;;;5013208;28;20038;-76
2022/03/09 03:28:29;;;;;;;30.55;17.38;;;13.10;2201.60;;;;;;5014434;28;20037;-76
2022/03/09 03:30:55;;;;;;;35.00;20.98;;;13.20;2201.60;;;;;;5014646;28;20500;-76
2022/03/09 03:33:21;;;;;;;32.33;16.95;;;13.20;2201.60;;;;;;5013339;28;20073;-76
2022/03/09 03:35:48;;;;;;;32.08;17.85;;;13.30;2201.60;;;;;;5013777;28;20049;-76
2022/03/09 03:38:14;;;;;;;27.77;14.95;;;13.30;2201.60;;;;;;5013229;28;20112;-76
2022/03/09 03:40:40;;;;;;;23.33;12.93;;;13.30;2201.60;;;;;;5013025;28;20021;-75
2022/03/09 03:43:06;;;;;;;28.63;18.42;;;13.30;2201.60;;;;;;5013088;28;20072;-76
2022/03/09 03:45:32;;;;;;;27.30;13.63;;;13.40;2201.60;;;;;;5012614;28;20468;-76
2022/03/09 03:47:58;;;;;;;28.48;13.05;;;13.40;2201.60;;;;;;5014168;28;20081;-77
2022/03/09 03:50:24;;;;;;;34.25;16.80;;;13.40;2201.60;;;;;;5013936;28;20029;-76
2022/03/09 03:52:50;;;;;;;32.70;18.23;;;13.50;2201.60;;;;;;5012868;28;20118;-75
2022/03/09 03:55:16;;;;;;;27.17;14.88;;;13.50;2201.60;;;;;;5012873;28;20056;-76
2022/03/09 03:57:42;;;;;;;22.40;11.57;;;13.50;2201.60;;;;;;5013801;28;20996;-76
2022/03/09 04:00:09;;;;;;;27.95;10.73;;;13.50;2201.60;;;;;;5014098;28;20604;-77
2022/03/09 04:02:36;;;;;;;30.73;16.13;;;13.50;2201.60;;;;;;5012631;28;20393;-76
2022/03/09 04:05:02;;;;;;;36.35;17.02;;;13.50;2201.60;;;;;;5012158;28;20034;-76
2022/03/09 04:07:28;;;;;;;28.30;17.23;;;13.50;2201.60;;;;;;5013927;28;20046;-76
2022/03/09 04:09:54;;;;;;;26.73;13.85;;;13.50;2201.60;;;;;;5012612;28;20030;-76
2022/03/09 04:12:20;;;;;;;28.67;14.98;;;13.50;2201.60;;;;;;5013657;28;20050;-78
2022/03/09 04:14:46;;;;;;;34.05;17.65;;;13.60;2201.60;;;;;;5013462;28;20397;-76
2022/03/09 04:17:12;;;;;;;27.67;16.35;;;13.60;2201.60;;;;;;5013597;28;20075;-76
2022/03/09 04:19:38;;;;;;;36.13;16.20;;;13.60;2201.60;;;;;;5012390;28;20026;-77
2022/03/09 04:22:04;;;;;;;29.50;18.02;;;13.70;2201.60;;;;;;5013583;28;20041;-76
2022/03/09 04:24:29;;;;;;;25.15;13.85;;;13.60;2201.60;;;;;;5013279;28;20026;-76
2022/03/09 04:26:55;;;;;;;29.52;16.35;;;13.70;2201.60;;;;;;5012825;28;20049;-76
2022/03/09 04:29:21;;;;;;;22.33;12.85;;;13.70;2201.60;;;;;;5012267;28;20029;-76
2022/03/09 04:31:47;;;;;;;31.63;18.05;;;38.40;2201.60;;;;;;5012169;28;20412;-74
2022/03/09 04:34:12;;;;;;;35.30;16.75;;;38.40;2201.60;;;;;;5012163;28;20026;-76
2022/03/09 04:36:38;;;;;;;36.85;18.58;;;38.40;2201.60;;;;;;5012177;28;20378;-75
2022/03/09 04:39:05;;;;;;;36.97;19.73;;;38.40;2201.60;;;;;;5012118;28;20022;-78
2022/03/09 04:41:31;;;;;;;41.92;21.23;;;38.40;2201.60;;;;;;5013303;28;20022;-77
2022/03/09 04:43:57;;;;;;;42.03;20.65;;;38.40;2201.60;;;;;;5013170;28;20362;-76
2022/03/09 04:46:23;;;;;;;36.95;17.10;;;38.40;2201.60;;;;;;5012030;28;20516;-75
2022/03/09 04:48:49;;;;;;;36.83;17.70;;;38.40;2201.60;;;;;;5013103;28;20372;-77
2022/03/09 04:51:16;;;;;;;32.28;14.48;;;13.70;2201.60;;;;;;5011289;28;20130;-75
2022/03/09 04:53:42;;;;;;;30.92;19.00;;;13.70;2201.60;;;;;;5011785;28;20030;-76
2022/03/09 04:56:08;;;;;;;31.60;18.42;;;13.70;2201.60;;;;;;5011307;28;20385;-75
2022/03/09 04:58:33;;;;;;;37.20;18.02;;;13.70;2201.60;;;;;;5011623;28;20457;-75
2022/03/09 05:00:59;;;;;;;28.13;17.05;;;13.70;2201.60;;;;;;5011985;28;20029;-76
2022/03/09 05:03:25;;;;;;;35.83;19.42;;;38.40;2201.60;;;;;;5011696;28;20033;-78
2022/03/09 05:05:51;;;;;;;29.45;16.67;;;38.40;2201.60;;;;;;5011332;28;20042;-77
2022/03/09 05:08:17;;;;;;;29.13;15.20;;;38.40;2201.60;;;;;;5011911;28;20030;-75
2022/03/09 05:10:43;;;;;;;34.63;17.52;;;38.40;2201.60;;;;;;5012115;28;20022;-78
2022/03/09 05:13:08;;;;;;;30.08;14.73;;;38.50;2201.60;;;;;;4997181;28;20469;-78
2022/03/09 05:15:34;;;;;;;41.90;19.15;;;38.50;2201.60;;;;;;5012382;28;20045;-78
2022/03/09 05:18:00;;;;;;;40.40;22.77;;;38.50;2201.60;;;;;;5026346;28;20025;-85
2022/03/09 05:20:26;;;;;;;34.90;20.23;;;38.50;2201.60;;;;;;5031094;28;20029;-76
2022/03/09 05:22:52;;;;;;;47.38;24.20;;;38.60;2201.60;;;;;;5027148;28;20026;-76
2022/03/09 05:25:19;;;;;;;50.85;24.05;;;38.60;2201.60;;;;;;5012520;28;20022;-76
2022/03/09 05:27:45;;;;;;;53.10;26.60;;;38.60;2201.60;;;;;;5011701;28;20021;-75
2022/03/09 05:30:11;;;;;;;47.78;27.83;;;38.50;2201.60;;;;;;5011092;28;20115;-77
2022/03/09 05:32:39;;;;;;;54.00;26.88;;;38.60;2201.60;;;;;;5010938;28;20030;-74
2022/03/09 05:35:05;;;;;;;37.78;20.27;;;38.60;2201.60;;;;;;5012114;28;20018;-75
2022/03/09 05:37:40;;;;;;;52.63;28.13;;;38.60;2201.60;;;;;;5010100;28;20029;-75
2022/03/09 05:40:08;;;;;;;45.28;24.10;;;38.60;2201.60;;;;;;5012062;28;20488;-75
2022/03/09 05:42:34;;;;;;;50.30;23.98;;;38.60;2201.60;;;;;;5011941;28;20049;-75
2022/03/09 05:45:00;;;;;;;38.00;19.38;;;38.50;2201.60;;;;;;5010835;28;20053;-77
2022/03/09 05:47:26;;;;;;;39.13;21.35;;;38.50;2201.60;;;;;;5011087;28;20046;-77
2022/03/09 05:49:52;;;;;;;23.90;13.25;;;38.50;2201.60;;;;;;5006553;28;20481;-77
2022/03/09 05:52:17;;;;;;;23.02;12.93;;;38.50;2201.60;;;;;;5011074;28;20030;-75
2022/03/09 05:54:45;;;;;;;31.13;17.30;;;38.40;2201.60;;;;;;5010806;28;20029;-77
2022/03/09 05:57:12;;;;;;;40.40;20.75;;;13.70;2201.60;;;;;;5008883;28;20022;-78
2022/03/09 05:59:37;;;;;;;31.30;15.65;;;13.60;2201.60;;;;;;5015247;28;20024;-76
2022/03/09 06:02:03;;;;;;;45.80;20.00;;;13.60;2201.60;;;;;;5014827;28;20030;-76
2022/03/09 06:04:29;;;;;;;32.85;19.40;;;13.40;2201.60;;;;;;5015007;28;20482;-77
2022/03/09 06:06:55;;;;;;;49.28;24.95;;;13.40;2201.60;;;;;;5016277;28;20497;-75
2022/03/09 06:09:20;;;;;;;37.80;20.95;;;13.30;2201.60;;;;;;5015303;28;20034;-75
2022/03/09 06:11:46;;;;;;;38.88;20.30;;;13.20;2201.60;;;;;;5015162;28;20075;-75
2022/03/09 06:14:12;;;;;;;54.58;31.35;;;13.20;2201.60;;;;;;5014328;28;20033;-76
2022/03/09 06:16:37;;;;;;;64.13;32.47;;;13.10;2201.60;;;;;;5014116;28;20030;-76
2022/03/09 06:19:03;;;;;;;46.60;26.38;;;13.10;2201.60;;;;;;5013801;28;20018;-78
2022/03/09 06:21:29;;;;;;;37.53;20.85;;;13.10;2201.60;;;;;;5014109;28;20485;-76
2022/03/09 06:23:54;;;;;;;45.58;21.45;;;13.20;2201.60;;;;;;5015249;28;20370;-77
2022/03/09 06:26:20;;;;;;;33.20;18.58;;;13.10;2201.60;;;;;;5015441;28;20048;-78
2022/03/09 06:28:46;;;;;;;40.33;19.35;;;13.20;2201.60;;;;;;5013657;28;20165;-77
2022/03/09 06:31:11;;;;;;;29.48;17.00;;;13.10;2201.60;;;;;;5013896;28;20070;-77
2022/03/09 06:33:37;;;;;;;43.25;23.92;;;13.00;2201.60;;;;;;5013240;28;20487;-77
2022/03/09 06:36:06;;;;;;;41.85;22.30;;;12.90;2201.60;;;;;;5010623;28;20025;-77
2022/03/09 06:38:33;;;;;;;28.17;15.35;;;12.90;2201.60;;;;;;5011649;28;20034;-77
2022/03/09 06:40:58;;;;;;;39.50;23.00;;;12.90;2201.60;;;;;;5014240;28;20026;-76
2022/03/09 06:43:24;;;;;;;54.20;25.02;;;0.00;2201.60;;;;;;5013075;28;20053;-77
2022/03/09 06:45:50;;;;;;;55.70;25.08;;;0.00;2201.60;;;;;;5013918;28;20428;-76
2022/03/09 06:48:16;;;;;;;50.88;28.20;;;0.00;2201.60;;;;;;5014023;28;20491;-75
2022/03/09 06:50:42;;;;;;;40.00;21.60;;;0.30;2201.60;;;;;;5013313;28;20029;-77
2022/03/09 06:53:07;;;;;;;46.45;28.00;;;0.50;2201.60;;;;;;5013292;28;20036;-76
2022/03/09 06:55:34;;;;;;;38.65;21.77;;;0.40;2201.60;;;;;;5015080;28;20528;-81
2022/03/09 06:58:00;;;;;;;41.55;24.48;;;0.50;2201.60;;;;;;5014341;28;20424;-77
2022/03/09 07:00:25;;;;;;;30.92;15.40;;;0.80;2201.60;;;;;;5013719;28;20032;-76
2022/03/09 07:02:51;;;;;;;49.17;26.77;;;0.50;2201.60;;;;;;5014621;28;20389;-76
2022/03/09 07:05:17;;;;;;;42.05;21.45;;;0.70;2201.60;;;;;;5014604;28;20076;-76
2022/03/09 07:07:43;;;;;;;41.15;20.52;;;0.90;2201.60;;;;;;5014069;28;20077;-77
2022/03/09 07:10:12;;;;;;;31.35;18.30;;;0.90;2201.60;;;;;;5013451;28;20112;-76
2022/03/09 07:12:39;;;;;;;35.85;20.33;;;0.80;2201.60;;;;;;5014842;28;20473;-77
2022/03/09 07:15:05;;;;;;;35.53;17.33;;;0.80;2201.60;;;;;;5012847;28;21322;-76
2022/03/09 07:17:31;;;;;;;40.50;22.77;;;0.80;2201.60;;;;;;5013601;28;20156;-76
2022/03/09 07:19:56;;;;;;;46.13;22.90;;;0.90;2201.60;;;;;;5014571;28;20100;-76
2022/03/09 07:22:22;;;;;;;43.60;23.42;;;25.70;2201.60;;;;;;5014662;28;20101;-78
2022/03/09 07:24:48;;;;;;;34.88;19.67;;;25.60;2201.60;;;;;;5013599;28;20026;-78
2022/03/09 07:27:14;;;;;;;43.10;22.15;;;25.60;2201.60;;;;;;5014246;28;20037;-76
2022/03/09 07:29:40;;;;;;;41.47;23.33;;;25.70;2201.60;;;;;;5014618;28;20025;-77
2022/03/09 07:32:08;;;;;;;43.20;26.33;;;25.80;2201.60;;;;;;5013249;28;20112;-77
2022/03/09 07:34:34;;;;;;;51.60;28.60;;;25.90;2201.60;;;;;;5014590;28;20156;-77
2022/03/09 07:37:00;;;;;;;50.80;29.80;;;26.10;2201.60;;;;;;5014121;28;20026;-76
2022/03/09 07:39:27;;;;;;;49.17;27.25;;;26.30;2201.60;;;;;;5014449;28;20022;-76
2022/03/09 07:41:55;;;;;;;42.00;22.20;;;26.30;2201.60;;;;;;5013054;28;20577;-76
2022/03/09 07:44:22;;;;;;;35.95;19.50;;;26.30;2201.60;;;;;;5014101;28;20022;-77
2022/03/09 07:46:48;;;;;;;35.83;16.98;;;26.20;2201.60;;;;;;5012767;28;20044;-77
2022/03/09 07:49:14;;;;;;;53.10;26.58;;;26.40;2201.60;;;;;;5014197;28;20032;-77
2022/03/09 07:51:39;;;;;;;37.28;18.55;;;51.20;2227.20;;;;;;5014415;28;20030;-76
2022/03/09 07:54:06;;;;;;;36.55;16.05;;;51.30;2227.20;;;;;;5013747;28;20444;-76
2022/03/09 07:56:32;;;;;;;22.70;13.68;;;51.30;2227.20;;;;;;5013997;28;20489;-77
2022/03/09 07:58:58;;;;;;;37.15;20.48;;;51.20;2227.20;;;;;;5012727;28;20032;-76
2022/03/09 08:01:24;;;;;;;34.20;20.08;;;51.40;2227.20;;;;;;5013832;28;20025;-76
2022/03/09 08:03:50;;;;;;;25.77;14.18;;;51.40;2227.20;;;;;;5012515;28;20022;-76
2022/03/09 08:06:15;;;;;;;26.40;17.27;;;51.40;2227.20;;;;;;5013503;28;20053;-76
2022/03/09 08:08:41;;;;;;;26.05;16.20;;;51.50;2227.20;;;;;;5012427;28;20442;-76
2022/03/09 08:11:07;;;;;;;28.63;19.10;;;51.70;2227.20;;;;;;5013596;28;20382;-76
2022/03/09 08:13:32;;;;;;;25.83;14.00;;;52.00;2227.20;;;;;;5012413;28;20026;-76
2022/03/09 08:15:58;;;;;;;23.23;15.52;;;52.00;2073.60;;;;;;5013529;28;20081;-76
2022/03/09 08:18:24;;;;;;;27.77;15.32;;;52.10;2073.60;;;;;;5013273;28;20022;-76
2022/03/09 08:20:50;;;;;;;20.00;11.60;;;76.90;2022.40;;;;;;5012900;28;20037;-76
2022/03/09 08:23:15;;;;;;;18.67;12.55;;;76.80;2022.40;;;;;;5012270;28;20152;-76
2022/03/09 08:25:41;;;;;;;26.60;12.45;;;76.80;2022.40;;;;;;5012969;28;20042;-76
2022/03/09 08:28:07;;;;;;;22.48;13.00;;;76.80;1996.80;;;;;;5013709;28;20030;-76
2022/03/09 08:30:32;;;;;;;18.65;10.13;;;76.90;1996.80;;;;;;5013366;28;20111;-78
2022/03/09 08:32:58;;;;;;;27.85;15.93;;;77.00;1971.20;;;;;;5013132;28;20030;-76
2022/03/09 08:35:24;;;;;;;28.75;16.73;;;77.20;2022.40;;;;;;5013266;28;20037;-76
2022/03/09 08:37:49;;;;;;;12.68;9.77;;;77.40;2048.00;;;;;;4998585;28;20034;-77
2022/03/09 08:40:15;;;;;;;21.92;10.38;;;77.50;1868.80;;;;;;4993917;28;20039;-76
2022/03/09 08:42:41;;;;;;;23.02;10.02;;;77.50;1868.80;;;;;;4993595;28;20035;-76
2022/03/09 08:45:07;;;;;;;31.90;13.73;;;77.70;1817.60;;;;;;4993377;28;20061;-76
2022/03/09 08:47:33;;;;;;;13.07;8.57;;;102.70;1817.60;;;;;;4993167;28;20462;-76
2022/03/09 08:49:58;;;;;;;19.65;11.27;;;102.60;1817.60;;;;;;4993059;28;20508;-76
2022/03/09 08:52:24;;;;;;;14.88;8.57;;;102.60;1843.20;;;;;;5008210;28;20064;-76
2022/03/09 08:54:53;;;;;;;27.55;11.52;;;102.90;1817.60;;;;;;4993086;28;20045;-76
2022/03/09 08:57:22;;;;;;;20.70;11.57;;;102.90;1792.00;;;;;;4992027;28;20022;-76
2022/03/09 08:59:48;;;;;;;12.48;7.45;;;102.90;1766.40;;;;;;4993141;28;20034;-76
2022/03/09 09:02:14;;;;;;;14.15;8.10;;;102.70;1740.80;;;;;;4992962;28;20023;-76
2022/03/09 09:04:40;;;;;;;12.10;5.97;;;102.90;1740.80;;;;;;4991494;28;20073;-76
2022/03/09 09:07:06;;;;;;;18.77;10.60;;;102.80;1715.20;;;;;;4992639;28;20069;-77
2022/03/09 09:09:33;;;;;;;15.25;8.68;;;102.90;1715.20;;;;;;4991738;28;20482;-76
2022/03/09 09:12:02;;;;;;;16.50;9.55;;;103.00;1664.00;;;;;;4991404;28;20033;-75
2022/03/09 09:14:28;;;;;;;15.60;8.82;;;103.20;1689.60;;;;;;4992794;28;20109;-77
2022/03/09 09:16:54;;;;;;;12.75;7.53;;;128.00;1715.20;;;;;;4991518;28;20933;-76
2022/03/09 09:19:20;;;;;;;12.45;7.53;;;128.00;1689.60;;;;;;4991486;28;20116;-77
2022/03/09 09:21:46;;;;;;;10.40;7.55;;;103.30;1689.60;;;;;;4991382;28;20180;-76
2022/03/09 09:24:13;;;;;;;15.82;9.70;;;103.20;1664.00;;;;;;4993179;28;20026;-77
2022/03/09 09:26:39;;;;;;;20.75;11.27;;;128.20;1612.80;;;;;;4991493;28;20045;-77
2022/03/09 09:29:04;;;;;;;15.38;9.90;;;128.00;1664.00;;;;;;4991391;28;20035;-76
2022/03/09 09:31:30;;;;;;;19.25;10.52;;;128.10;1612.80;;;;;;5000016;28;20057;-77
2022/03/09 09:33:56;;;;;;;20.27;9.07;;;128.30;1612.80;;;;;;5010706;28;20053;-77
2022/03/09 09:36:22;;;;;;;29.95;11.27;;;128.10;1664.00;;;;;;5012050;28;20100;-77
2022/03/09 09:38:48;;;;;;;16.45;8.77;;;103.20;1612.80;;;;;;5011825;28;20074;-76
2022/03/09 09:41:18;;;;;;;11.98;7.22;;;103.30;1612.80;;;;;;5010811;28;20037;-77
2022/03/09 09:43:45;;;;;;;18.35;9.35;;;103.30;1638.40;;;;;;5011063;28;20064;-76
2022/03/09 09:46:12;;;;;;;12.75;7.20;;;103.30;1638.40;;;;;;5012024;28;20037;-76
2022/03/09 09:48:39;;;;;;;17.02;9.13;;;103.30;1612.80;;;;;;5011495;28;20101;-77
2022/03/09 09:51:06;;;;;;;8.85;6.00;;;103.30;1638.40;;;;;;5011920;28;20094;-76
2022/03/09 09:53:35;;;;;;;13.75;7.05;;;103.20;1638.40;;;;;;5011765;28;20084;-76
2022/03/09 09:56:02;;;;;;;16.15;7.68;;;102.90;1638.40;;;;;;5010390;28;20029;-76
2022/03/09 09:58:30;;;;;;;13.02;7.03;;;102.70;1766.40;;;;;;5011070;28;20100;-77
2022/03/09 10:00:56;;;;;;;15.52;10.00;;;77.70;1894.40;;;;;;5011359;28;20049;-76
2022/03/09 10:03:21;;;;;;;18.20;10.18;;;77.50;2227.20;;;;;;5012017;28;20065;-76
2022/03/09 10:05:47;;;;;;;13.68;10.13;;;77.20;2227.20;;;;;;5010144;28;20057;-76
2022/03/09 10:08:16;;;;;;;20.52;12.05;;;51.80;2227.20;;;;;;5011953;28;20065;-76
2022/03/09 10:10:59;;;;;;;36.03;14.10;;;51.70;2227.20;;;;;;5012222;28;20124;-76
2022/03/09 10:13:36;;;;;;;23.98;11.95;;;26.10;2201.60;;;;;;5011644;28;20030;-76
2022/03/09 10:16:12;;;;;;;16.70;12.23;;;25.70;2201.60;;;;;;5010503;28;20030;-76
2022/03/09 10:18:38;;;;;;;25.45;18.08;;;25.60;2201.60;;;;;;5011447;28;20030;-77
2022/03/09 10:21:12;;;;;;;24.73;14.18;;;25.70;2201.60;;;;;;5011733;28;20355;-76
2022/03/09 10:23:58;;;;;;;35.72;21.95;;;25.60;2201.60;;;;;;5011206;28;20040;-76
2022/03/09 10:26:48;;;;;;;32.38;18.50;;;25.60;2201.60;;;;;;5010493;28;20457;-77
2022/03/09 10:29:17;;;;;;;71.38;31.05;;;0.90;2201.60;;;;;;5005141;28;20038;-76
2022/03/09 10:31:50;;;;;;;40.58;23.90;;;25.60;2201.60;;;;;;5011640;28;20147;-76
2022/03/09 10:34:17;;;;;;;51.10;25.63;;;0.90;2201.60;;;;;;5010373;28;20046;-76
2022/03/09 10:37:05;;;;;;;40.60;21.10;;;0.90;2201.60;;;;;;5010386;28;20034;-77
2022/03/09 10:39:39;;;;;;;49.15;32.58;;;0.90;2201.60;;;;;;5012009;28;20537;-77
2022/03/09 10:42:23;;;;;;;29.92;17.63;;;25.60;2201.60;;;;;;5011715;28;20029;-77
2022/03/09 10:44:50;;;;;;;48.80;29.35;;;0.90;2201.60;;;;;;5012153;28;20514;-75
2022/03/09 10:47:34;;;;;;;59.10;35.15;;;25.60;2201.60;;;;;;5015038;28;20034;-76
2022/03/09 10:50:16;;;;;;;39.33;25.60;;;25.60;2201.60;;;;;;5013869;28;20030;-76
2022/03/09 10:52:43;;;;;;;38.08;21.75;;;25.60;2201.60;;;;;;5013930;28;20370;-76
2022/03/09 10:55:38;;;;;;;47.00;30.33;;;25.60;2201.60;;;;;;5014737;28;20389;-77
2022/03/09 10:58:14;;;;;;;55.05;33.20;;;25.60;2201.60;;;;;;5010018;28;20405;-77
2022/03/09 11:00:45;;;;;;;52.40;33.92;;;25.60;2201.60;;;;;;5014074;28;20464;-76
2022/03/09 11:03:19;;;;;;;50.13;30.45;;;25.60;2201.60;;;;;;5013255;28;20307;-76
2022/03/09 11:05:55;;;;;;;53.25;32.92;;;25.60;2201.60;;;;;;5011499;28;20060;-76
2022/03/09 11:08:24;;;;;;;47.47;29.90;;;25.70;2201.60;;;;;;4996286;28;20054;-75
2022/03/09 11:10:50;;;;;;;60.58;36.00;;;25.70;2201.60;;;;;;4994995;28;20018;-76
2022/03/09 11:13:17;;;;;;;44.00;26.10;;;25.60;2201.60;;;;;;4995435;28;20034;-76
2022/03/09 11:15:44;;;;;;;39.25;27.02;;;25.60;2099.20;;;;;;5026626;28;20377;-77
2022/03/09 11:18:19;;;;;;;48.72;28.85;;;25.70;2201.60;;;;;;4995153;28;20054;-75
2022/03/09 11:20:49;;;;;;;37.20;25.00;;;25.80;2201.60;;;;;;5005978;28;20037;-76
2022/03/09 11:23:16;;;;;;;49.40;29.70;;;25.80;2201.60;;;;;;5013676;28;20057;-77
2022/03/09 11:26:03;;;;;;;45.70;27.38;;;25.70;2201.60;;;;;;5013089;28;20049;-77
2022/03/09 11:28:36;;;;;;;51.80;27.63;;;25.80;2201.60;;;;;;5031362;28;20396;-77
2022/03/09 11:31:07;;;;;;;42.33;24.17;;;25.80;2176.00;;;;;;4999396;28;20058;-77
2022/03/09 11:33:45;;;;;;;46.22;29.17;;;25.90;2201.60;;;;;;5013199;28;20018;-77
2022/03/09 11:36:26;;;;;;;43.17;28.17;;;26.00;2201.60;;;;;;5009920;28;20038;-77
2022/03/09 11:38:53;;;;;;;43.20;27.38;;;26.10;2201.60;;;;;;5013190;28;20041;-79
2022/03/09 11:41:25;;;;;;;44.00;26.52;;;26.10;2201.60;;;;;;5012524;28;20034;-77
2022/03/09 11:43:52;;;;;;;48.20;28.42;;;26.10;2201.60;;;;;;5012786;28;20037;-76
2022/03/09 11:46:19;;;;;;;44.50;27.25;;;26.20;2124.80;;;;;;5012102;28;20061;-77
2022/03/09 11:48:59;;;;;;;38.50;20.10;;;26.00;2048.00;;;;;;5012946;28;20026;-77
2022/03/09 11:51:29;;;;;;;45.78;25.13;;;26.00;2073.60;;;;;;5012553;28;20030;-76
2022/03/09 11:53:59;;;;;;;44.63;26.58;;;26.10;2150.40;;;;;;5013988;28;20018;-77
2022/03/09 11:56:26;;;;;;;25.42;14.80;;;25.90;2201.60;;;;;;5014024;28;20026;-76
2022/03/09 11:59:15;;;;;;;42.05;26.05;;;25.80;1971.20;;;;;;5013978;28;20033;-77
2022/03/09 12:01:57;;;;;;;37.38;21.65;;;25.90;2201.60;;;;;;5013798;28;20022;-77
2022/03/09 12:04:53;;;;;;;41.78;25.52;;;25.70;2201.60;;;;;;5013691;28;20050;-77
2022/03/09 12:07:28;;;;;;;48.40;30.63;;;25.70;2201.60;;;;;;5013836;28;20401;-76
2022/03/09 12:10:02;;;;;;;33.45;21.67;;;25.70;2201.60;;;;;;5014095;28;20116;-77
2022/03/09 12:12:30;;;;;;;25.88;16.83;;;25.60;2201.60;;;;;;5045824;28;20117;-77
2022/03/09 12:15:13;;;;;;;25.48;15.90;;;25.70;2201.60;;;;;;5013777;28;20026;-77